createdAt,value
2023-05-21T00:02:20.187Z,93919.22
2023-05-21T00:04:47.510Z,93919.47
2023-05-21T00:07:15.362Z,93908.56
2023-05-21T00:09:42.035Z,93915.47
2023-05-21T00:12:09.132Z,93918.09
2023-05-21T00:14:36.019Z,93907.47
2023-05-21T00:17:02.594Z,93908.13
2023-05-21T00:19:29.180Z,93905.84
2023-05-21T00:21:55.983Z,93905.63
2023-05-21T00:24:22.491Z,93906.75
2023-05-21T00:26:48.954Z,93910.91
2023-05-21T00:29:15.664Z,93899.19
2023-05-21T00:31:42.227Z,93899.97
2023-05-21T00:34:09.113Z,93902.16
2023-05-21T00:36:35.634Z,93896.56
2023-05-21T00:39:02.414Z,93896.22
2023-05-21T00:41:30.175Z,93891.28
2023-05-21T00:43:57.182Z,93889.00
2023-05-21T00:46:24.140Z,93881.44
2023-05-21T00:48:51.237Z,93873.47
2023-05-21T00:51:18.700Z,93877.09
2023-05-21T00:53:46.654Z,93875.47
2023-05-21T00:56:13.712Z,93874.28
2023-05-21T00:58:41.393Z,93875.78
2023-05-21T01:01:13.539Z,93879.84
2023-05-21T01:03:41.067Z,93878.34
2023-05-21T01:06:09.154Z,93874.50
2023-05-21T01:08:38.791Z,93874.81
2023-05-21T01:11:07.478Z,93879.66
2023-05-21T01:13:37.552Z,93882.59
2023-05-21T01:16:06.622Z,93867.84
2023-05-21T01:18:40.146Z,93873.53
2023-05-21T01:21:07.540Z,93867.63
2023-05-21T01:23:34.457Z,93878.69
2023-05-21T01:26:01.007Z,93881.63
2023-05-21T01:28:27.731Z,93876.28
2023-05-21T01:30:58.613Z,93872.88
2023-05-21T01:33:33.460Z,93879.66
2023-05-21T01:36:06.686Z,93872.53
2023-05-21T01:38:43.448Z,93874.84
2023-05-21T01:41:15.612Z,93872.22
2023-05-21T01:43:45.621Z,93882.28
2023-05-21T01:46:17.199Z,93873.97
2023-05-21T01:48:44.217Z,93872.41
2023-05-21T01:51:11.552Z,93863.69
2023-05-21T01:53:40.634Z,93872.56
2023-05-21T01:56:07.753Z,93869.50
2023-05-21T01:58:34.441Z,93872.78
2023-05-21T02:01:00.949Z,93870.81
2023-05-21T02:03:31.015Z,93868.88
2023-05-21T02:05:57.802Z,93863.06
2023-05-21T02:08:25.540Z,93864.16
2023-05-21T02:10:52.190Z,93860.44
2023-05-21T02:13:24.938Z,93862.63
2023-05-21T02:15:54.776Z,93864.94
2023-05-21T02:18:22.213Z,93856.94
2023-05-21T02:20:48.843Z,93859.13
2023-05-21T02:23:15.681Z,93851.91
2023-05-21T02:25:42.547Z,93857.81
2023-05-21T02:28:09.078Z,93854.97
2023-05-21T02:30:35.991Z,93851.91
2023-05-21T02:33:02.955Z,93852.56
2023-05-21T02:35:29.908Z,93847.97
2023-05-21T02:37:59.202Z,93850.81
2023-05-21T02:40:25.856Z,93843.59
2023-05-21T02:42:52.379Z,93849.19
2023-05-21T02:45:20.946Z,93843.81
2023-05-21T02:47:47.658Z,93845.13
2023-05-21T02:50:17.459Z,93843.50
2023-05-21T02:52:49.515Z,93839.69
2023-05-21T02:55:16.200Z,93835.94
2023-05-21T02:57:42.794Z,93841.66
2023-05-21T03:00:10.593Z,93837.47
2023-05-21T03:02:38.806Z,93838.78
2023-05-21T03:05:06.074Z,93837.28
2023-05-21T03:07:33.370Z,93831.13
2023-05-21T03:09:59.974Z,93835.50
2023-05-21T03:12:26.462Z,93835.41
2023-05-21T03:14:53.086Z,93833.09
2023-05-21T03:17:20.630Z,93828.31
2023-05-21T03:19:49.030Z,93833.09
2023-05-21T03:22:15.980Z,93826.75
2023-05-21T03:24:42.474Z,93835.28
2023-05-21T03:27:09.200Z,93834.41
2023-05-21T03:29:36.219Z,93828.94
2023-05-21T03:32:03.649Z,93836.66
2023-05-21T03:34:34.504Z,93836.09
2023-05-21T03:37:01.927Z,93830.75
2023-05-21T03:39:29.211Z,93828.34
2023-05-21T03:41:56.753Z,93827.13
2023-05-21T03:44:32.791Z,93834.56
2023-05-21T03:47:15.794Z,93835.22
2023-05-21T03:49:42.720Z,93838.47
2023-05-21T03:52:09.309Z,93833.13
2023-05-21T03:54:35.965Z,93835.44
2023-05-21T03:57:06.181Z,93838.38
2023-05-21T03:59:33.204Z,93842.88
2023-05-21T04:02:00.312Z,93844.59
2023-05-21T04:04:29.292Z,93844.94
2023-05-21T04:06:56.006Z,93841.97
2023-05-21T04:09:23.033Z,93836.06
2023-05-21T04:11:51.755Z,93841.31
2023-05-21T04:14:18.298Z,93849.63
2023-05-21T04:16:44.884Z,93848.22
2023-05-21T04:19:11.480Z,93853.56
2023-05-21T04:21:37.960Z,93854.00
2023-05-21T04:24:05.188Z,93860.38
2023-05-21T04:26:50.128Z,93855.13
2023-05-21T04:29:21.303Z,93854.47
2023-05-21T04:31:49.713Z,93857.53
2023-05-21T04:34:19.903Z,93865.19
2023-05-21T04:36:46.544Z,93859.28
2023-05-21T04:39:14.735Z,93860.50
2023-05-21T04:41:41.251Z,93864.78
2023-05-21T04:44:08.441Z,93872.66
2023-05-21T04:46:35.226Z,93871.56
2023-05-21T04:49:03.064Z,93871.56
2023-05-21T04:51:31.351Z,93878.22
2023-05-21T04:53:58.201Z,93884.13
2023-05-21T04:56:27.371Z,93887.19
2023-05-21T04:58:54.328Z,93884.41
2023-05-21T05:01:23.590Z,93882.06
2023-05-21T05:03:50.555Z,93877.38
2023-05-21T05:06:17.500Z,93880.00
2023-05-21T05:08:46.233Z,93880.78
2023-05-21T05:11:14.286Z,93881.22
2023-05-21T05:13:43.681Z,93882.09
2023-05-21T05:16:10.253Z,93887.16
2023-05-21T05:18:37.172Z,93887.56
2023-05-21T05:21:03.839Z,93885.72
2023-05-21T05:23:30.603Z,93881.38
2023-05-21T05:25:57.265Z,93887.47
2023-05-21T05:28:23.778Z,93878.59
2023-05-21T05:30:50.310Z,93878.72
2023-05-21T05:33:22.269Z,93879.63
2023-05-21T05:35:49.110Z,93881.25
2023-05-21T05:38:15.639Z,93877.63
2023-05-21T05:40:42.100Z,93883.00
2023-05-21T05:43:08.737Z,93881.91
2023-05-21T05:45:35.434Z,93878.19
2023-05-21T05:48:06.463Z,93878.28
2023-05-21T05:50:32.999Z,93872.03
2023-05-21T05:52:59.521Z,93881.66
2023-05-21T05:55:26.823Z,93879.81
2023-05-21T05:57:54.193Z,93879.50
2023-05-21T06:00:21.338Z,93878.06
2023-05-21T06:02:49.907Z,93884.63
2023-05-21T06:05:16.708Z,93880.56
2023-05-21T06:07:43.307Z,93873.13
2023-05-21T06:10:10.217Z,93877.38
2023-05-21T06:12:36.874Z,93880.47
2023-05-21T06:15:04.037Z,93879.78
2023-05-21T06:17:31.692Z,93876.06
2023-05-21T06:19:58.287Z,93887.00
2023-05-21T06:22:26.716Z,93883.81
2023-05-21T06:24:53.334Z,93874.63
2023-05-21T06:27:20.586Z,93882.06
2023-05-21T06:29:48.296Z,93877.00
2023-05-21T06:32:14.845Z,93880.47
2023-05-21T06:34:41.876Z,93878.28
2023-05-21T06:37:08.383Z,93878.03
2023-05-21T06:39:34.866Z,93885.94
2023-05-21T06:42:01.776Z,93887.16
2023-05-21T06:44:51.664Z,93883.09
2023-05-21T06:47:37.387Z,93886.44
2023-05-21T06:50:04.243Z,93885.03
2023-05-21T06:52:31.802Z,93879.97
2023-05-21T06:54:59.679Z,93889.94
2023-05-21T06:57:29.280Z,93893.09
2023-05-21T06:59:57.182Z,93895.72
2023-05-21T07:02:23.787Z,93888.03
2023-05-21T07:04:50.394Z,93898.66
2023-05-21T07:07:16.918Z,93896.56
2023-05-21T07:09:43.407Z,93895.47
2023-05-21T07:12:10.157Z,93900.72
2023-05-21T07:14:37.601Z,93901.56
2023-05-21T07:17:04.369Z,93904.06
2023-05-21T07:19:31.444Z,93912.47
2023-05-21T07:21:58.662Z,93903.56
2023-05-21T07:24:27.444Z,93903.41
2023-05-21T07:26:54.319Z,93902.09
2023-05-21T07:29:21.513Z,93905.59
2023-05-21T07:31:48.098Z,93901.25
2023-05-21T07:34:16.041Z,93905.25
2023-05-21T07:36:42.582Z,93896.34
2023-05-21T07:39:09.094Z,93901.09
2023-05-21T07:41:36.977Z,93896.75
2023-05-21T07:44:07.190Z,93896.25
2023-05-21T07:46:37.690Z,93894.84
2023-05-21T07:49:04.217Z,93894.25
2023-05-21T07:51:31.241Z,93893.66
2023-05-21T07:53:57.747Z,93901.72
2023-05-21T07:56:32.314Z,93900.09
2023-05-21T07:58:59.614Z,93895.84
2023-05-21T08:01:29.553Z,93898.19
2023-05-21T08:03:56.527Z,93909.72
2023-05-21T08:06:24.355Z,93894.81
2023-05-21T08:08:50.984Z,93897.19
2023-05-21T08:11:17.734Z,93902.13
2023-05-21T08:13:45.507Z,93904.47
2023-05-21T08:16:12.900Z,93910.66
2023-05-21T08:18:39.568Z,93908.97
2023-05-21T08:21:06.408Z,93911.41
2023-05-21T08:23:32.997Z,93912.38
2023-05-21T08:26:00.107Z,93911.09
2023-05-21T08:28:27.706Z,93910.91
2023-05-21T08:30:54.941Z,93912.31
2023-05-21T08:33:23.385Z,93910.94
2023-05-21T08:35:49.931Z,93908.44
2023-05-21T08:38:30.534Z,93903.66
2023-05-21T08:41:07.645Z,93912.53
2023-05-21T08:43:37.123Z,93916.50
2023-05-21T08:46:04.692Z,93903.53
2023-05-21T08:48:34.857Z,93910.91
2023-05-21T08:51:01.494Z,93906.53
2023-05-21T08:53:34.878Z,93910.91
2023-05-21T08:56:03.792Z,93910.31
2023-05-21T08:58:46.251Z,93906.59
2023-05-21T09:01:19.105Z,93913.47
2023-05-21T09:03:50.377Z,93917.22
2023-05-21T09:06:17.230Z,93912.59
2023-05-21T09:08:47.442Z,93920.16
2023-05-21T09:11:32.375Z,93928.41
2023-05-21T09:14:00.785Z,93923.88
2023-05-21T09:16:49.780Z,93924.16
2023-05-21T09:19:24.134Z,93928.28
2023-05-21T09:21:53.765Z,93925.00
2023-05-21T09:24:24.354Z,93926.91
2023-05-21T09:26:52.463Z,93928.47
2023-05-21T09:29:19.562Z,93931.50
2023-05-21T09:31:46.624Z,93918.28
2023-05-21T09:34:14.244Z,93925.53
2023-05-21T09:36:43.814Z,93922.13
2023-05-21T09:39:16.166Z,93929.38
2023-05-21T09:41:43.113Z,93933.53
2023-05-21T09:44:10.701Z,93925.13
2023-05-21T09:46:41.437Z,93927.00
2023-05-21T09:49:22.942Z,93928.94
2023-05-21T09:51:49.809Z,93935.06
2023-05-21T09:54:16.356Z,93925.72
2023-05-21T09:56:42.907Z,93933.00
2023-05-21T09:59:09.756Z,93937.59
2023-05-21T10:01:37.474Z,93935.66
2023-05-21T10:04:08.776Z,93945.16
2023-05-21T10:06:42.009Z,93940.25
2023-05-21T10:09:11.005Z,93935.38
2023-05-21T10:11:39.559Z,93935.84
2023-05-21T10:14:07.778Z,93940.44
2023-05-21T10:16:36.203Z,93937.88
2023-05-21T10:19:04.362Z,93931.53
2023-05-21T10:21:33.307Z,93931.59
2023-05-21T10:24:02.071Z,93936.91
2023-05-21T10:26:28.798Z,93939.22
2023-05-21T10:28:56.463Z,93935.88
2023-05-21T10:31:23.425Z,93940.84
2023-05-21T10:33:51.082Z,93934.78
2023-05-21T10:36:20.655Z,93934.84
2023-05-21T10:38:47.549Z,93937.91
2023-05-21T10:41:17.249Z,93941.38
2023-05-21T10:44:06.785Z,93938.03
2023-05-21T10:46:48.538Z,93940.06
2023-05-21T10:49:49.112Z,93939.44
2023-05-21T10:52:33.801Z,93946.03
2023-05-21T10:55:23.536Z,93938.63
2023-05-21T10:58:10.956Z,93932.72
2023-05-21T11:00:38.461Z,93934.34
2023-05-21T11:03:06.179Z,93927.56
2023-05-21T11:05:40.468Z,93924.97
2023-05-21T11:08:21.370Z,93923.81
2023-05-21T11:10:52.776Z,93924.59
2023-05-21T11:13:22.411Z,93929.13
2023-05-21T11:15:57.723Z,93924.22
2023-05-21T11:18:47.097Z,93917.03
2023-05-21T11:21:15.390Z,93923.56
2023-05-21T11:23:51.195Z,93925.50
2023-05-21T11:26:19.397Z,93914.19
2023-05-21T11:28:46.098Z,93918.31
2023-05-21T11:31:29.749Z,93911.38
2023-05-21T11:34:15.670Z,93912.34
2023-05-21T11:36:44.920Z,93910.69
2023-05-21T11:39:17.802Z,93905.16
2023-05-21T11:41:53.595Z,93903.78
2023-05-21T11:44:48.502Z,93902.44
2023-05-21T11:47:19.152Z,93909.53
2023-05-21T11:49:46.581Z,93901.00
2023-05-21T11:52:14.046Z,93900.09
2023-05-21T11:54:46.081Z,93910.28
2023-05-21T11:57:16.600Z,93900.16
2023-05-21T11:59:43.240Z,93901.53
2023-05-21T12:02:09.741Z,93900.44
2023-05-21T12:04:36.776Z,93904.31
2023-05-21T12:07:13.336Z,93906.81
2023-05-21T12:09:40.790Z,93913.97
2023-05-21T12:12:11.529Z,93898.97
2023-05-21T12:14:37.983Z,93905.78
2023-05-21T12:17:07.015Z,93909.22
2023-05-21T12:19:34.738Z,93908.00
2023-05-21T12:22:05.425Z,93898.22
2023-05-21T12:24:32.230Z,93912.22
2023-05-21T12:27:01.023Z,93906.19
2023-05-21T12:29:29.728Z,93904.44
2023-05-21T12:31:59.765Z,93901.94
2023-05-21T12:34:41.566Z,93907.78
2023-05-21T12:37:08.274Z,93906.38
2023-05-21T12:39:39.351Z,93902.03
2023-05-21T12:42:06.997Z,93903.34
2023-05-21T12:44:34.861Z,93906.28
2023-05-21T12:47:03.502Z,93906.56
2023-05-21T12:49:37.524Z,93905.78
2023-05-21T12:52:14.272Z,93905.09
2023-05-21T12:54:43.779Z,93900.53
2023-05-21T12:57:28.268Z,93919.81
2023-05-21T12:59:59.643Z,93916.09
2023-05-21T13:02:28.947Z,93909.66
2023-05-21T13:05:00.800Z,93911.66
2023-05-21T13:07:29.293Z,93905.38
2023-05-21T13:09:56.493Z,93913.88
2023-05-21T13:12:24.515Z,93911.94
2023-05-21T13:14:51.856Z,93902.59
2023-05-21T13:17:19.430Z,93910.06
2023-05-21T13:20:20.136Z,93907.22
2023-05-21T13:22:47.888Z,93907.56
2023-05-21T13:25:16.334Z,93905.28
2023-05-21T13:27:43.357Z,93905.84
2023-05-21T13:30:11.702Z,93910.84
2023-05-21T13:32:39.512Z,93907.00
2023-05-21T13:35:07.230Z,93909.50
2023-05-21T13:37:37.884Z,93899.50
2023-05-21T13:40:04.766Z,93903.91
2023-05-21T13:42:31.312Z,93905.25
2023-05-21T13:44:58.244Z,93899.94
2023-05-21T13:47:24.801Z,93901.25
2023-05-21T13:49:51.552Z,93902.44
2023-05-21T13:52:18.292Z,93900.44
2023-05-21T13:54:44.757Z,93901.03
2023-05-21T13:57:11.226Z,93900.63
2023-05-21T13:59:37.713Z,93890.84
2023-05-21T14:02:04.202Z,93893.94
2023-05-21T14:04:30.675Z,93896.44
2023-05-21T14:06:57.326Z,93892.81
2023-05-21T14:09:27.042Z,93890.78
2023-05-21T14:11:55.029Z,93891.97
2023-05-21T14:14:22.015Z,93891.78
2023-05-21T14:16:49.404Z,93892.03
2023-05-21T14:19:16.702Z,93893.56
2023-05-21T14:21:43.586Z,93884.63
2023-05-21T14:24:10.470Z,93879.06
2023-05-21T14:26:39.970Z,93888.13
2023-05-21T14:29:06.828Z,93888.13
2023-05-21T14:31:33.339Z,93876.81
2023-05-21T14:33:59.858Z,93889.44
2023-05-21T14:36:26.322Z,93880.47
2023-05-21T14:38:52.837Z,93883.72
2023-05-21T14:41:19.370Z,93876.44
2023-05-21T14:43:45.838Z,93876.06
2023-05-21T14:46:12.325Z,93885.75
2023-05-21T14:48:38.881Z,93885.69
2023-05-21T14:51:05.385Z,93885.75
2023-05-21T14:53:32.279Z,93881.22
2023-05-21T14:55:59.056Z,93872.94
2023-05-21T14:58:25.534Z,93882.31
2023-05-21T15:00:52.009Z,93884.66
2023-05-21T15:03:18.547Z,93883.31
2023-05-21T15:05:45.055Z,93883.63
2023-05-21T15:08:11.520Z,93869.88
2023-05-21T15:10:38.134Z,93881.56
2023-05-21T15:13:04.599Z,93877.94
2023-05-21T15:15:31.058Z,93877.03
2023-05-21T15:17:58.059Z,93873.19
2023-05-21T15:20:24.694Z,93876.44
2023-05-21T15:22:53.495Z,93879.22
2023-05-21T15:25:23.534Z,93869.78
2023-05-21T15:27:50.713Z,93867.69
2023-05-21T15:30:17.471Z,93864.72
2023-05-21T15:32:44.076Z,93867.50
2023-05-21T15:35:10.694Z,93863.34
2023-05-21T15:37:37.319Z,93857.44
2023-05-21T15:40:04.502Z,93855.19
2023-05-21T15:42:31.891Z,93855.28
2023-05-21T15:44:58.853Z,93857.13
2023-05-21T15:47:25.554Z,93860.81
2023-05-21T15:49:52.064Z,93853.00
2023-05-21T15:52:19.965Z,93855.38
2023-05-21T15:54:47.053Z,93856.09
2023-05-21T15:57:13.569Z,93859.13
2023-05-21T15:59:40.112Z,93850.44
2023-05-21T16:02:07.695Z,93858.25
2023-05-21T16:04:34.481Z,93857.72
2023-05-21T16:07:00.932Z,93857.03
2023-05-21T16:09:27.416Z,93853.13
2023-05-21T16:11:53.901Z,93857.22
2023-05-21T16:14:20.417Z,93854.88
2023-05-21T16:16:46.929Z,93862.44
2023-05-21T16:19:13.485Z,93854.63
2023-05-21T16:21:39.992Z,93858.28
2023-05-21T16:24:06.741Z,93851.41
2023-05-21T16:26:33.235Z,93860.97
2023-05-21T16:29:02.236Z,93853.19
2023-05-21T16:31:29.045Z,93854.50
2023-05-21T16:33:55.846Z,93855.94
2023-05-21T16:36:22.387Z,93853.56
2023-05-21T16:38:48.945Z,93852.00
2023-05-21T16:41:15.605Z,93852.38
2023-05-21T16:43:42.173Z,93856.44
2023-05-21T16:46:08.677Z,93855.38
2023-05-21T16:48:37.324Z,93860.34
2023-05-21T16:51:04.597Z,93856.06
2023-05-21T16:53:31.369Z,93857.34
2023-05-21T16:55:57.921Z,93862.47
2023-05-21T16:58:24.540Z,93861.13
2023-05-21T17:00:51.082Z,93865.81
2023-05-21T17:03:17.940Z,93865.13
2023-05-21T17:05:44.642Z,93856.97
2023-05-21T17:08:11.204Z,93864.16
2023-05-21T17:10:37.700Z,93859.16
2023-05-21T17:13:13.961Z,93863.31
2023-05-21T17:15:47.706Z,93862.75
2023-05-21T17:18:14.315Z,93855.69
2023-05-21T17:20:41.015Z,93859.94
2023-05-21T17:23:07.516Z,93864.53
2023-05-21T17:25:34.682Z,93857.25
2023-05-21T17:28:01.489Z,93861.38
2023-05-21T17:30:27.948Z,93857.56
2023-05-21T17:32:54.636Z,93862.09
2023-05-21T17:35:21.195Z,93857.19
2023-05-21T17:37:48.080Z,93864.09
2023-05-21T17:40:14.597Z,93862.97
2023-05-21T17:42:41.382Z,93879.63
2023-05-21T17:45:09.269Z,93869.19
2023-05-21T17:47:36.053Z,93873.00
2023-05-21T17:50:02.757Z,93870.81
2023-05-21T17:52:29.267Z,93867.19
2023-05-21T17:54:55.811Z,93870.59
2023-05-21T17:57:22.425Z,93884.47
2023-05-21T17:59:48.904Z,93881.81
2023-05-21T18:02:15.352Z,93881.97
2023-05-21T18:04:41.822Z,93879.28
2023-05-21T18:07:08.259Z,93886.09
2023-05-21T18:09:34.768Z,93883.28
2023-05-21T18:12:02.944Z,93887.25
2023-05-21T18:14:29.402Z,93887.06
2023-05-21T18:16:56.015Z,93887.94
2023-05-21T18:19:22.626Z,93887.63
2023-05-21T18:21:49.471Z,93889.63
2023-05-21T18:24:15.952Z,93889.69
2023-05-21T18:26:43.397Z,93885.94
2023-05-21T18:29:11.234Z,93886.69
2023-05-21T18:31:37.832Z,93882.16
2023-05-21T18:34:04.432Z,93885.25
2023-05-21T18:36:38.354Z,93888.28
2023-05-21T18:39:08.947Z,93884.50
2023-05-21T18:41:36.067Z,93891.34
2023-05-21T18:44:02.720Z,93893.59
2023-05-21T18:46:29.588Z,93894.34
2023-05-21T18:48:56.378Z,93894.34
2023-05-21T18:51:22.922Z,93898.50
2023-05-21T18:53:49.527Z,93890.13
2023-05-21T18:56:17.014Z,93894.25
2023-05-21T18:58:43.484Z,93898.00
2023-05-21T19:01:10.325Z,93893.44
2023-05-21T19:03:38.017Z,93901.00
2023-05-21T19:06:04.702Z,93896.78
2023-05-21T19:08:31.169Z,93897.13
2023-05-21T19:10:57.760Z,93898.97
2023-05-21T19:13:24.349Z,93903.88
2023-05-21T19:15:50.841Z,93904.19
2023-05-21T19:18:17.443Z,93907.91
2023-05-21T19:20:43.924Z,93912.41
2023-05-21T19:23:10.665Z,93911.22
2023-05-21T19:25:37.518Z,93908.13
2023-05-21T19:28:04.048Z,93913.03
2023-05-21T19:30:30.632Z,93914.88
2023-05-21T19:32:57.484Z,93912.56
2023-05-21T19:35:23.959Z,93919.34
2023-05-21T19:37:50.537Z,93917.03
2023-05-21T19:40:17.651Z,93920.00
2023-05-21T19:42:44.796Z,93927.94
2023-05-21T19:45:11.777Z,93928.66
2023-05-21T19:47:40.980Z,93937.34
2023-05-21T19:50:08.172Z,93927.84
2023-05-21T19:52:34.659Z,93937.22
2023-05-21T19:55:04.800Z,93931.09
2023-05-21T19:57:32.573Z,93923.78
2023-05-21T19:59:59.478Z,93926.00
2023-05-21T20:02:28.550Z,93922.53
2023-05-21T20:04:56.926Z,93928.94
2023-05-21T20:07:23.790Z,93933.38
2023-05-21T20:09:50.572Z,93929.13
2023-05-21T20:12:17.050Z,93937.34
2023-05-21T20:14:46.748Z,93935.75
2023-05-21T20:17:14.400Z,93919.25
2023-05-21T20:19:41.163Z,93937.06
2023-05-21T20:22:07.694Z,93942.69
2023-05-21T20:24:34.234Z,93942.59
2023-05-21T20:27:01.600Z,93938.75
2023-05-21T20:29:28.851Z,93946.56
2023-05-21T20:31:55.493Z,93938.94
2023-05-21T20:34:22.187Z,93941.91
2023-05-21T20:36:48.719Z,93939.97
2023-05-21T20:39:15.481Z,93932.72
2023-05-21T20:41:44.834Z,93938.41
2023-05-21T20:44:11.970Z,93942.53
2023-05-21T20:46:38.989Z,93943.22
2023-05-21T20:49:06.154Z,93939.03
2023-05-21T20:51:33.081Z,93936.00
2023-05-21T20:53:59.653Z,93937.47
2023-05-21T20:56:40.715Z,93940.13
2023-05-21T20:59:09.886Z,93938.53
2023-05-21T21:01:38.165Z,93925.50
2023-05-21T21:04:05.057Z,93941.88
2023-05-21T21:06:31.930Z,93944.13
2023-05-21T21:08:58.620Z,93948.66
2023-05-21T21:11:26.647Z,93948.25
2023-05-21T21:13:53.163Z,93950.50
2023-05-21T21:16:19.798Z,93945.19
2023-05-21T21:18:47.096Z,93945.50
2023-05-21T21:21:13.860Z,93947.78
2023-05-21T21:23:40.505Z,93953.78
2023-05-21T21:26:07.177Z,93948.47
2023-05-21T21:28:34.022Z,93943.47
2023-05-21T21:31:00.729Z,93952.59
2023-05-21T21:33:28.399Z,93952.94
2023-05-21T21:35:55.008Z,93955.59
2023-05-21T21:38:21.679Z,93954.06
2023-05-21T21:40:48.268Z,93957.13
2023-05-21T21:43:14.794Z,93954.06
2023-05-21T21:45:41.354Z,93948.75
2023-05-21T21:48:07.936Z,93951.84
2023-05-21T21:50:34.601Z,93952.94
2023-05-21T21:53:01.202Z,93952.50
2023-05-21T21:55:29.514Z,93949.06
2023-05-21T21:57:55.999Z,93944.88
2023-05-21T22:00:26.381Z,93943.31
2023-05-21T22:02:52.954Z,93941.31
2023-05-21T22:05:19.468Z,93940.13
2023-05-21T22:07:46.530Z,93942.38
2023-05-21T22:10:17.217Z,93946.13
2023-05-21T22:12:45.931Z,93949.13
2023-05-21T22:15:19.236Z,93938.84
2023-05-21T22:17:47.310Z,93945.53
2023-05-21T22:20:13.976Z,93944.31
2023-05-21T22:22:40.594Z,93949.88
2023-05-21T22:25:07.351Z,93941.84
2023-05-21T22:27:34.016Z,93954.22
2023-05-21T22:30:00.887Z,93950.00
2023-05-21T22:32:27.406Z,93951.78
2023-05-21T22:34:53.908Z,93949.84
2023-05-21T22:37:20.421Z,93949.84
2023-05-21T22:39:46.884Z,93951.31
2023-05-21T22:42:13.434Z,93954.31
2023-05-21T22:44:40.108Z,93958.06
2023-05-21T22:47:09.269Z,93950.50
2023-05-21T22:49:38.062Z,93954.25
2023-05-21T22:52:06.363Z,93947.41
2023-05-21T22:54:32.822Z,93948.88
2023-05-21T22:57:01.205Z,93950.75
2023-05-21T22:59:29.224Z,93947.72
2023-05-21T23:01:55.875Z,93948.47
2023-05-21T23:04:35.732Z,93948.84
2023-05-21T23:07:09.710Z,93948.84
2023-05-21T23:09:36.529Z,93933.72
2023-05-21T23:12:03.739Z,93947.72
2023-05-21T23:14:30.460Z,93939.38
2023-05-21T23:17:01.704Z,93942.34
2023-05-21T23:19:29.553Z,93949.50
2023-05-21T23:21:56.373Z,93941.88
2023-05-21T23:24:23.369Z,93944.06
2023-05-21T23:26:50.010Z,93942.47
2023-05-21T23:29:16.628Z,93937.78
2023-05-21T23:31:43.645Z,93938.88
2023-05-21T23:34:10.294Z,93934.28
2023-05-21T23:36:36.789Z,93934.19
2023-05-21T23:39:03.509Z,93938.31
2023-05-21T23:41:30.168Z,93938.25
2023-05-21T23:43:57.607Z,93929.06
2023-05-21T23:46:24.111Z,93935.38
2023-05-21T23:48:50.617Z,93943.56
2023-05-21T23:51:19.147Z,93939.25
2023-05-21T23:53:45.784Z,93939.03
2023-05-21T23:56:12.399Z,93941.78
2023-05-21T23:58:38.865Z,93932.41
